Time;durP1;ratioP1;P1;durP2;ratioP2;P2;SDS_P1;SDS_P2;PMS_P1;PMS_P2;Temp;Humidity;BMP_temperature;BMP_pressure;BME280_temperature;BME280_humidity;BME280_pressure;Samples;Min_cycle;Max_cycle;Signal;HPM_P1;HPM_P2
2022/10/08 00:09:01;;;;;;;4.13;2.13;;;17.50;99.90;;;;;;7605152;76;26290;-58
2022/10/08 00:19:07;;;;;;;5.03;2.40;;;17.50;99.90;;;;;;7619224;76;26244;-59
2022/10/08 00:29:12;;;;;;;8.27;2.33;;;17.50;99.90;;;;;;7601758;76;26336;-56
2022/10/08 00:39:17;;;;;;;7.67;1.83;;;17.40;99.90;;;;;;7644218;76;26269;-57
2022/10/08 00:49:24;;;;;;;7.97;2.30;;;17.40;99.90;;;;;;7605014;76;26835;-57
2022/10/08 00:59:27;;;;;;;3.73;2.07;;;17.40;99.90;;;;;;7631420;76;26741;-58
2022/10/08 01:09:33;;;;;;;9.57;2.43;;;17.30;99.90;;;;;;7607156;76;26314;-56
2022/10/08 01:19:55;;;;;;;6.97;2.10;;;17.20;99.90;;;;;;7615016;76;27352;-57
2022/10/08 01:30:01;;;;;;;4.87;2.27;;;17.20;99.90;;;;;;7609244;76;26285;-59
2022/10/08 01:40:06;;;;;;;11.20;2.77;;;17.10;99.90;;;;;;7621046;76;26302;-59
2022/10/08 01:50:30;;;;;;;9.10;2.23;;;17.00;99.90;;;;;;7597284;75;26322;-58
2022/10/08 02:00:35;;;;;;;6.47;2.27;;;17.10;99.90;;;;;;7622937;76;27025;-56
2022/10/08 02:10:38;;;;;;;8.37;1.93;;;17.10;99.90;;;;;;7634639;76;26272;-57
2022/10/08 02:20:52;;;;;;;10.40;2.57;;;17.10;99.90;;;;;;7613454;76;26363;-57
2022/10/08 02:31:00;;;;;;;6.47;2.33;;;17.10;99.90;;;;;;7593914;76;26792;-55
2022/10/08 02:41:06;;;;;;;7.27;2.03;;;17.00;99.90;;;;;;7610035;76;26302;-55
2022/10/08 02:51:11;;;;;;;7.23;2.07;;;17.00;99.90;;;;;;7587196;76;26799;-58
2022/10/08 03:01:34;;;;;;;7.77;2.10;;;17.00;99.90;;;;;;7632174;76;26362;-58
2022/10/08 03:11:37;;;;;;;8.20;1.83;;;16.90;99.90;;;;;;7615667;76;26297;-57
2022/10/08 03:21:42;;;;;;;4.60;1.50;;;16.90;99.90;;;;;;7631604;75;26380;-56
2022/10/08 03:31:49;;;;;;;10.73;2.03;;;16.90;99.90;;;;;;7666247;76;26842;-56
2022/10/08 03:41:52;;;;;;;7.43;1.80;;;16.90;99.90;;;;;;7636178;76;26290;-55
2022/10/08 03:51:54;;;;;;;4.00;1.40;;;16.80;99.90;;;;;;7627512;75;27075;-57
2022/10/08 04:01:57;;;;;;;6.77;1.87;;;16.70;99.90;;;;;;7654286;76;26335;-57
2022/10/08 04:11:59;;;;;;;10.47;2.23;;;16.60;99.90;;;;;;7648346;76;26260;-57
2022/10/08 04:22:02;;;;;;;6.40;2.10;;;16.70;99.90;;;;;;7615005;76;26369;-56
2022/10/08 04:32:04;;;;;;;9.13;2.17;;;16.70;99.90;;;;;;7653276;76;26389;-54
2022/10/08 04:42:07;;;;;;;10.37;2.20;;;16.70;99.90;;;;;;7641377;76;26354;-58
2022/10/08 04:52:09;;;;;;;10.40;2.03;;;16.60;99.90;;;;;;7646580;76;27399;-57
2022/10/08 05:02:12;;;;;;;9.73;2.63;;;16.60;99.90;;;;;;7656953;76;26373;-58
2022/10/08 05:12:14;;;;;;;15.30;2.10;;;16.50;99.90;;;;;;7640172;76;26296;-59
2022/10/08 05:22:17;;;;;;;7.10;2.10;;;16.50;99.90;;;;;;7672112;76;26361;-59
2022/10/08 05:32:19;;;;;;;10.17;2.80;;;16.40;99.90;;;;;;7619696;75;26887;-57
2022/10/08 05:42:22;;;;;;;7.53;2.13;;;16.50;99.90;;;;;;7666257;76;26275;-55
2022/10/08 05:52:25;;;;;;;27.70;4.37;;;16.40;99.90;;;;;;7613928;76;26274;-57
2022/10/08 06:02:28;;;;;;;23.97;3.73;;;16.50;99.90;;;;;;7670173;76;26346;-57
2022/10/08 06:12:30;;;;;;;19.70;3.53;;;16.40;99.90;;;;;;7660142;76;26897;-54
2022/10/08 06:22:33;;;;;;;12.73;3.10;;;16.30;99.90;;;;;;7621886;76;26293;-56
2022/10/08 06:32:35;;;;;;;17.00;3.43;;;16.30;99.90;;;;;;7637574;76;26336;-55
2022/10/08 06:42:38;;;;;;;11.53;2.70;;;16.20;99.90;;;;;;7611283;76;26759;-53
2022/10/08 06:52:40;;;;;;;11.23;2.57;;;16.20;99.90;;;;;;7686102;76;26283;-58
2022/10/08 07:02:43;;;;;;;10.60;2.60;;;16.20;99.90;;;;;;7669449;76;26261;-59
2022/10/08 07:12:45;;;;;;;15.30;3.03;;;16.30;99.90;;;;;;7653769;76;26280;-55
2022/10/08 07:22:48;;;;;;;13.67;2.50;;;16.40;99.90;;;;;;7646409;76;26739;-57
2022/10/08 07:32:52;;;;;;;8.57;2.10;;;16.40;99.90;;;;;;7639267;76;26346;-58
2022/10/08 07:42:55;;;;;;;13.60;4.07;;;16.40;99.90;;;;;;7655398;76;26297;-59
2022/10/08 07:52:57;;;;;;;13.50;2.60;;;16.40;99.90;;;;;;7640005;76;26316;-57
2022/10/08 08:03:00;;;;;;;10.17;2.47;;;16.60;99.90;;;;;;7627172;76;26339;-56
2022/10/08 08:13:02;;;;;;;14.90;2.23;;;16.60;99.90;;;;;;7687538;75;26338;-57
2022/10/08 08:23:05;;;;;;;6.43;2.20;;;16.60;99.90;;;;;;7622983;76;26366;-58
2022/10/08 08:33:07;;;;;;;7.70;2.47;;;16.60;99.90;;;;;;7658548;76;26343;-57
2022/10/08 08:43:10;;;;;;;5.80;2.23;;;16.80;99.90;;;;;;7674188;76;26793;-57
2022/10/08 08:53:13;;;;;;;8.57;2.27;;;16.80;99.90;;;;;;7670795;76;26260;-59
2022/10/08 09:03:27;;;;;;;10.33;2.10;;;16.80;99.90;;;;;;7657789;76;26369;-54
2022/10/08 09:13:39;;;;;;;13.40;2.40;;;16.90;99.90;;;;;;7593456;76;27226;-56
2022/10/08 09:23:42;;;;;;;8.90;2.23;;;16.90;99.90;;;;;;7636175;76;26720;-55
2022/10/08 09:33:47;;;;;;;4.73;1.50;;;17.00;99.90;;;;;;7667053;76;26272;-53
2022/10/08 09:44:11;;;;;;;8.50;2.33;;;17.00;99.90;;;;;;7652698;76;26319;-57
2022/10/08 09:54:17;;;;;;;5.57;1.77;;;17.10;99.90;;;;;;7648135;76;26287;-57
2022/10/08 10:04:37;;;;;;;5.17;1.93;;;17.20;99.90;;;;;;7649229;76;26322;-59
2022/10/08 10:14:51;;;;;;;13.40;2.37;;;17.20;99.90;;;;;;7642729;76;26380;-56
2022/10/08 10:24:59;;;;;;;9.70;2.27;;;17.30;99.90;;;;;;7601876;76;27415;-57
2022/10/08 10:35:22;;;;;;;10.97;2.57;;;17.30;99.90;;;;;;7631607;76;26306;-57
2022/10/08 10:45:30;;;;;;;7.60;2.50;;;17.30;99.90;;;;;;7646092;76;27407;-57
2022/10/08 10:55:51;;;;;;;10.90;2.43;;;17.40;99.90;;;;;;7641401;76;26304;-56
2022/10/08 11:06:08;;;;;;;6.07;2.03;;;17.40;99.90;;;;;;7647324;76;26783;-56
2022/10/08 11:16:19;;;;;;;9.60;3.00;;;17.40;99.90;;;;;;7665872;76;27433;-55
2022/10/08 11:26:58;;;;;;;11.63;2.90;;;17.40;99.90;;;;;;7635676;76;26389;-55
2022/10/08 11:37:09;;;;;;;14.63;2.80;;;17.50;99.90;;;;;;7643155;76;27346;-53
2022/10/08 11:47:45;;;;;;;16.67;2.47;;;17.50;99.90;;;;;;7663205;76;26304;-56
2022/10/08 11:58:02;;;;;;;22.93;3.30;;;17.50;99.90;;;;;;7660344;75;26845;-56
2022/10/08 12:08:05;;;;;;;11.73;2.63;;;17.50;99.90;;;;;;7670942;76;26257;-55
2022/10/08 12:18:19;;;;;;;8.43;2.40;;;17.50;99.90;;;;;;7660572;76;26778;-55
2022/10/08 12:28:23;;;;;;;10.60;2.50;;;17.50;99.90;;;;;;7653419;76;26354;-57
2022/10/08 12:38:41;;;;;;;14.97;3.37;;;17.60;99.90;;;;;;7639529;76;26733;-56
2022/10/08 12:48:59;;;;;;;13.70;2.50;;;17.50;99.90;;;;;;7647422;76;26430;-57
2022/10/08 12:59:03;;;;;;;17.10;3.80;;;17.60;99.90;;;;;;7599468;76;26373;-52
2022/10/08 13:09:33;;;;;;;21.67;3.00;;;17.60;99.90;;;;;;7596669;76;26383;-53
2022/10/08 13:19:38;;;;;;;10.07;2.70;;;17.60;99.90;;;;;;7620550;76;26234;-54
2022/10/08 13:29:41;;;;;;;9.10;3.00;;;17.60;99.90;;;;;;7598626;76;26293;-54
2022/10/08 13:39:56;;;;;;;11.97;3.37;;;17.70;99.90;;;;;;7624705;76;26378;-55
2022/10/08 13:50:01;;;;;;;7.70;2.43;;;17.60;99.90;;;;;;7596073;76;26739;-55
2022/10/08 14:00:05;;;;;;;8.80;2.47;;;17.70;99.90;;;;;;7626984;76;26303;-54
2022/10/08 14:10:09;;;;;;;40.10;15.57;;;17.70;99.90;;;;;;7624667;76;26245;-55
2022/10/08 14:20:12;;;;;;;10.80;3.37;;;17.70;99.90;;;;;;7646443;76;26775;-55
2022/10/08 14:30:16;;;;;;;14.70;3.63;;;17.70;99.90;;;;;;7633650;76;26276;-51
2022/10/08 14:40:22;;;;;;;19.23;3.23;;;17.70;99.90;;;;;;7663035;76;26344;-51
2022/10/08 14:50:25;;;;;;;19.97;3.40;;;17.70;99.90;;;;;;7639804;76;26363;-52
2022/10/08 15:00:27;;;;;;;12.50;3.23;;;17.80;99.90;;;;;;7723612;76;26775;-54
2022/10/08 15:10:30;;;;;;;9.97;2.97;;;17.80;99.90;;;;;;7732329;76;26247;-55
2022/10/08 15:20:33;;;;;;;10.70;3.70;;;17.80;99.90;;;;;;7707235;76;26270;-55
2022/10/08 15:30:36;;;;;;;14.23;3.57;;;17.80;99.90;;;;;;7730345;76;27448;-54
2022/10/08 15:40:38;;;;;;;17.47;4.03;;;17.70;99.90;;;;;;7735698;76;26732;-54
2022/10/08 15:50:41;;;;;;;12.37;3.93;;;17.70;99.90;;;;;;7716202;76;26570;-55
2022/10/08 16:00:43;;;;;;;9.23;2.30;;;17.70;99.90;;;;;;7586101;76;26351;-55
2022/10/08 16:10:46;;;;;;;14.67;3.43;;;17.70;99.90;;;;;;7624915;77;26292;-53
2022/10/08 16:20:48;;;;;;;9.20;3.47;;;17.60;99.90;;;;;;7622536;76;26385;-52
2022/10/08 16:30:51;;;;;;;10.50;4.13;;;17.50;99.90;;;;;;7568051;76;26842;-55
2022/10/08 16:40:53;;;;;;;11.63;4.53;;;17.50;99.90;;;;;;7593792;76;26303;-56
2022/10/08 16:50:56;;;;;;;12.67;3.67;;;17.50;99.90;;;;;;7626364;76;26368;-57
2022/10/08 17:01:00;;;;;;;9.87;3.57;;;17.50;99.90;;;;;;7607129;77;26296;-52
2022/10/08 17:11:08;;;;;;;9.50;3.23;;;17.50;99.90;;;;;;7622294;77;26300;-53
2022/10/08 17:21:13;;;;;;;12.40;3.93;;;17.40;99.90;;;;;;7629089;77;26377;-53
2022/10/08 17:31:24;;;;;;;6.50;3.00;;;17.40;99.90;;;;;;7674007;77;26754;-55
2022/10/08 17:41:32;;;;;;;11.20;3.23;;;17.40;99.90;;;;;;7677856;77;26235;-56
2022/10/08 17:51:35;;;;;;;12.17;4.17;;;17.30;99.90;;;;;;7656618;77;27217;-55
2022/10/08 18:01:38;;;;;;;20.57;4.73;;;17.30;99.90;;;;;;7655136;76;26282;-55
2022/10/08 18:11:42;;;;;;;17.13;5.13;;;17.30;99.90;;;;;;7663784;76;26723;-57
2022/10/08 18:21:45;;;;;;;35.60;8.87;;;17.30;99.90;;;;;;7671797;76;26256;-58
2022/10/08 18:31:48;;;;;;;47.63;11.60;;;17.20;99.90;;;;;;7654004;76;26382;-55
2022/10/08 18:41:51;;;;;;;55.60;11.23;;;17.20;99.90;;;;;;7694586;76;26825;-55
2022/10/08 18:51:53;;;;;;;45.53;12.73;;;17.20;99.90;;;;;;7684922;76;26242;-57
2022/10/08 19:01:56;;;;;;;43.47;12.10;;;17.20;99.90;;;;;;7680682;76;26300;-55
2022/10/08 19:11:59;;;;;;;29.63;8.33;;;17.20;99.90;;;;;;7677861;76;27459;-57
2022/10/08 19:22:02;;;;;;;37.47;8.67;;;17.20;99.90;;;;;;7672863;76;26943;-55
2022/10/08 19:32:04;;;;;;;31.33;7.97;;;17.20;99.90;;;;;;7607028;76;26307;-58
2022/10/08 19:42:07;;;;;;;23.07;6.33;;;17.20;99.90;;;;;;7679980;76;26292;-58
2022/10/08 19:52:09;;;;;;;34.27;7.27;;;17.10;99.90;;;;;;7689905;76;26372;-58
2022/10/08 20:02:12;;;;;;;22.60;6.73;;;17.10;99.90;;;;;;7681964;76;26805;-55
2022/10/08 20:12:14;;;;;;;22.73;6.00;;;17.10;99.90;;;;;;7669261;76;26319;-56
2022/10/08 20:22:17;;;;;;;24.17;5.60;;;17.00;99.90;;;;;;7588665;76;26818;-54
2022/10/08 20:32:19;;;;;;;15.77;4.67;;;17.00;99.90;;;;;;7621538;76;26387;-54
2022/10/08 20:42:22;;;;;;;33.77;6.57;;;17.00;99.90;;;;;;7606994;77;26318;-56
2022/10/08 20:52:24;;;;;;;16.77;4.40;;;16.90;99.90;;;;;;7678547;76;26828;-55
2022/10/08 21:02:27;;;;;;;16.97;4.37;;;16.90;99.90;;;;;;7690177;76;26378;-57
2022/10/08 21:12:30;;;;;;;20.23;4.60;;;16.80;99.90;;;;;;7679833;76;26308;-55
2022/10/08 21:22:32;;;;;;;17.90;5.33;;;16.80;99.90;;;;;;7670805;76;26300;-57
2022/10/08 21:32:35;;;;;;;15.43;4.03;;;16.80;99.90;;;;;;7667956;76;26390;-57
2022/10/08 21:42:37;;;;;;;16.80;4.20;;;16.70;99.90;;;;;;7667946;76;26461;-55
2022/10/08 21:52:40;;;;;;;14.57;4.33;;;16.70;99.90;;;;;;7613151;76;26776;-57
2022/10/08 22:02:42;;;;;;;15.03;3.67;;;16.70;99.90;;;;;;7600077;76;26610;-56
2022/10/08 22:12:45;;;;;;;14.00;3.63;;;16.60;99.90;;;;;;7563892;76;26722;-56
2022/10/08 22:22:47;;;;;;;12.77;3.53;;;16.60;99.90;;;;;;7588466;76;26337;-55
2022/10/08 22:32:50;;;;;;;12.20;3.50;;;16.60;99.90;;;;;;7631682;76;26718;-55
2022/10/08 22:42:52;;;;;;;12.10;3.27;;;16.50;99.90;;;;;;7583408;77;26299;-55
2022/10/08 22:52:55;;;;;;;9.33;3.30;;;16.50;99.90;;;;;;7604012;76;26301;-55
2022/10/08 23:02:57;;;;;;;8.70;3.90;;;16.40;99.90;;;;;;7658082;77;26729;-56
2022/10/08 23:13:00;;;;;;;6.77;2.83;;;16.40;99.90;;;;;;7570632;76;26344;-55
2022/10/08 23:23:02;;;;;;;10.07;2.73;;;16.40;99.90;;;;;;7579043;76;26321;-56
2022/10/08 23:33:05;;;;;;;8.47;2.73;;;16.30;99.90;;;;;;7601707;76;26879;-58
2022/10/08 23:43:07;;;;;;;5.37;2.27;;;16.30;99.90;;;;;;7595816;76;26308;-57
2022/10/08 23:53:10;;;;;;;7.70;2.57;;;16.30;99.90;;;;;;7609345;76;26378;-57
